Time;durP1;ratioP1;P1;durP2;ratioP2;P2;SDS_P1;SDS_P2;PMS_P1;PMS_P2;Temp;Humidity;BMP_temperature;BMP_pressure;BME280_temperature;BME280_humidity;BME280_pressure;Samples;Min_cycle;Max_cycle;Signal;HPM_P1;HPM_P2
2022/06/09 00:02:01;;;;;;;14.70;5.57;;;;;;;17.11;34.65;99586.16;5030505;28;20041;-53
2022/06/09 00:04:36;;;;;;;18.10;5.75;;;;;;;17.11;34.81;99588.84;5030383;28;20029;-56
2022/06/09 00:07:08;;;;;;;12.43;5.28;;;;;;;17.03;35.11;99584.31;5028859;28;20362;-54
2022/06/09 00:09:48;;;;;;;11.75;6.10;;;;;;;17.04;34.55;99584.13;5030497;28;20037;-55
2022/06/09 00:12:13;;;;;;;15.13;5.38;;;;;;;16.96;35.02;99576.03;5030430;28;20033;-57
2022/06/09 00:14:40;;;;;;;14.45;5.40;;;;;;;16.91;35.36;99575.69;5030118;28;20381;-55
2022/06/09 00:17:06;;;;;;;11.88;5.28;;;;;;;16.78;35.17;99555.41;5030254;28;20017;-56
2022/06/09 00:19:32;;;;;;;11.70;5.75;;;;;;;16.87;35.33;99579.72;5030809;28;20060;-60
2022/06/09 00:21:58;;;;;;;13.73;6.05;;;;;;;16.84;35.45;99585.47;5030396;28;20033;-56
2022/06/09 00:24:23;;;;;;;13.30;5.90;;;;;;;16.63;35.54;99547.16;5029857;28;20037;-53
2022/06/09 00:26:49;;;;;;;14.57;5.93;;;;;;;16.76;35.47;99579.09;5033299;28;20388;-57
2022/06/09 00:29:14;;;;;;;14.90;6.05;;;;;;;16.73;35.42;99582.13;5034499;28;20029;-57
2022/06/09 00:31:40;;;;;;;13.68;5.60;;;;;;;16.71;35.53;99573.34;5034325;28;20029;-55
2022/06/09 00:34:06;;;;;;;14.15;6.07;;;;;;;16.70;35.43;99573.50;5033960;28;20527;-56
2022/06/09 00:36:32;;;;;;;9.52;5.90;;;;;;;16.68;35.80;99572.84;5033876;28;20034;-54
2022/06/09 00:38:58;;;;;;;14.98;6.05;;;;;;;16.64;35.88;99570.47;5034924;28;20059;-55
2022/06/09 00:41:25;;;;;;;12.38;6.40;;;;;;;16.64;35.97;99570.47;5033308;28;20033;-57
2022/06/09 00:43:50;;;;;;;14.05;6.20;;;;;;;16.61;36.94;99559.16;5033665;28;20052;-57
2022/06/09 00:46:21;;;;;;;16.73;6.10;;;;;;;16.59;36.39;99556.63;5033843;28;20034;-57
2022/06/09 00:48:55;;;;;;;16.60;6.45;;;;;;;16.63;36.09;99559.81;5034270;28;20033;-54
2022/06/09 00:51:42;;;;;;;14.57;6.00;;;;;;;16.64;35.84;99562.38;5032064;28;20099;-57
2022/06/09 00:54:16;;;;;;;15.05;5.82;;;;;;;16.60;36.37;99561.03;5033410;28;20030;-59
2022/06/09 00:56:48;;;;;;;14.30;6.22;;;;;;;16.69;36.52;99569.13;5033927;28;20030;-56
2022/06/09 00:59:17;;;;;;;14.18;6.15;;;;;;;16.71;36.47;99576.03;5033938;28;20072;-56
2022/06/09 01:01:43;;;;;;;12.52;5.82;;;;;;;16.72;36.39;99563.38;5013831;28;20139;-62
2022/06/09 01:04:12;;;;;;;10.73;5.85;;;;;;;16.75;36.21;99571.13;5032818;28;20037;-58
2022/06/09 01:06:48;;;;;;;11.75;5.78;;;;;;;16.66;35.69;99537.88;5033128;28;20049;-56
2022/06/09 01:09:17;;;;;;;10.07;5.10;;;;;;;16.84;35.78;99566.56;5033600;28;20486;-53
2022/06/09 01:11:46;;;;;;;11.75;6.22;;;;;;;16.89;35.80;99566.91;5033181;28;20087;-53
2022/06/09 01:14:15;;;;;;;11.23;5.55;;;;;;;16.87;36.06;99566.22;5032998;28;20047;-57
2022/06/09 01:16:46;;;;;;;12.13;6.25;;;;;;;16.91;36.10;99557.59;5033206;28;20034;-56
2022/06/09 01:19:30;;;;;;;14.10;5.95;;;;;;;16.93;35.99;99563.66;5032725;28;20053;-55
2022/06/09 01:22:25;;;;;;;11.60;5.68;;;;;;;17.00;35.63;99569.28;5032403;28;20114;-54
2022/06/09 01:25:09;;;;;;;11.73;5.13;;;;;;;16.97;35.87;99566.03;5030111;28;20480;-56
2022/06/09 01:27:58;;;;;;;16.10;5.43;;;;;;;16.96;35.49;99562.50;5013025;28;20038;-57
2022/06/09 01:30:46;;;;;;;14.27;5.35;;;;;;;17.01;35.71;99567.44;5025584;28;20102;-52
2022/06/09 01:33:30;;;;;;;9.20;5.43;;;;;;;16.96;35.71;99561.63;5033056;28;20107;-52
2022/06/09 01:36:06;;;;;;;10.20;5.55;;;;;;;16.98;36.00;99563.19;5032588;28;20112;-54
2022/06/09 01:38:42;;;;;;;;;;;;;;;17.21;34.93;99562.47;5032724;28;20029;-55
2022/06/09 01:41:08;;;;;;;11.13;5.10;;;;;;;17.02;35.90;99559.13;5032658;28;19917;-52
2022/06/09 01:43:33;;;;;;;15.13;5.60;;;;;;;16.96;36.09;99553.53;5032233;28;20056;-63
2022/06/09 01:46:07;;;;;;;15.13;5.55;;;;;;;17.03;35.92;99566.22;5032817;28;20030;-54
2022/06/09 01:48:34;;;;;;;12.63;5.43;;;;;;;16.96;36.52;99558.94;5033163;28;20496;-51
2022/06/09 01:51:12;;;;;;;10.38;5.35;;;;;;;17.02;36.29;99563.72;5032665;28;20389;-56
2022/06/09 01:53:52;;;;;;;15.82;5.43;;;;;;;17.14;35.83;99562.31;5032469;28;20065;-56
2022/06/09 01:56:33;;;;;;;15.93;5.53;;;;;;;17.11;36.19;99556.38;5032956;28;20541;-54
2022/06/09 01:59:05;;;;;;;12.45;5.20;;;;;;;17.17;36.18;99561.13;5032219;28;20030;-53
2022/06/09 02:01:35;;;;;;;13.75;5.32;;;;;;;17.21;36.06;99557.88;5031316;28;20385;-57
2022/06/09 02:04:06;;;;;;;11.80;5.10;;;;;;;17.25;36.11;99555.69;5032414;28;20037;-56
2022/06/09 02:06:34;;;;;;;13.05;5.38;;;;;;;17.28;36.13;99562.63;5033030;28;20381;-53
2022/06/09 02:09:00;;;;;;;15.57;6.30;;;;;;;17.30;36.22;99558.69;5032343;28;20058;-55
2022/06/09 02:11:27;;;;;;;11.45;5.13;;;;;;;17.34;36.52;99562.75;5032104;28;20049;-54
2022/06/09 02:13:56;;;;;;;11.05;5.13;;;;;;;17.46;36.08;99562.38;5032696;28;20037;-57
2022/06/09 02:16:23;;;;;;;12.02;5.30;;;;;;;17.59;35.70;99559.94;5032591;28;20114;-56
2022/06/09 02:19:08;;;;;;;16.70;5.43;;;;;;;17.85;35.36;99557.97;5030829;28;20132;-57
2022/06/09 02:21:36;;;;;;;13.85;5.95;;;;;;;18.11;34.72;99557.66;5032091;28;20041;-53
2022/06/09 02:24:02;;;;;;;9.90;5.95;;;;;;;18.39;34.33;99556.25;5032430;28;20033;-53
2022/06/09 02:26:28;;;;;;;13.52;6.43;;;;;;;18.67;34.09;99551.13;5032313;28;20491;-55
2022/06/09 02:28:54;;;;;;;14.40;6.40;;;;;;;18.97;33.45;99556.59;5031541;28;20159;-54
2022/06/09 02:31:21;;;;;;;15.82;6.40;;;;;;;19.33;33.11;99561.31;5031457;28;20037;-56
2022/06/09 02:33:48;;;;;;;12.32;6.45;;;;;;;19.76;32.48;99559.75;5032264;28;20108;-54
2022/06/09 02:36:13;;;;;;;13.60;6.38;;;;;;;20.17;31.73;99540.16;5030788;28;20038;-53
2022/06/09 02:38:39;;;;;;;17.88;6.70;;;;;;;20.62;30.47;99553.56;5031100;28;20028;-51
2022/06/09 02:41:05;;;;;;;15.93;6.85;;;;;;;20.96;30.52;99559.25;5031303;28;20377;-55
2022/06/09 02:43:30;;;;;;;11.13;6.25;;;;;;;21.02;29.99;99528.56;5030894;28;20116;-53
2022/06/09 02:45:56;;;;;;;11.35;6.25;;;;;;;21.24;29.76;99550.25;5031723;28;20192;-54
2022/06/09 02:48:22;;;;;;;19.05;7.15;;;;;;;21.16;30.23;99553.13;5030933;28;20080;-57
2022/06/09 02:50:51;;;;;;;18.30;7.47;;;;;;;20.94;30.43;99528.69;5030528;28;20080;-54
2022/06/09 02:53:16;;;;;;;15.43;7.13;;;;;;;20.94;30.83;99555.91;5031703;28;20108;-58
2022/06/09 02:55:42;;;;;;;12.50;6.07;;;;;;;20.93;30.60;99554.22;5031395;28;20133;-57
2022/06/09 02:58:08;;;;;;;13.15;7.18;;;;;;;20.97;30.63;99538.34;5031229;28;20040;-63
2022/06/09 03:00:33;;;;;;;16.98;7.43;;;;;;;21.37;30.16;99558.47;5031003;28;20033;-54
2022/06/09 03:03:01;;;;;;;14.32;7.13;;;;;;;21.82;29.52;99565.41;5031570;28;20029;-55
2022/06/09 03:05:29;;;;;;;16.92;7.80;;;;;;;22.28;29.13;99568.47;5031348;28;20033;-53
2022/06/09 03:07:55;;;;;;;17.17;7.75;;;;;;;22.87;28.16;99560.53;5031098;28;20466;-53
2022/06/09 03:10:21;;;;;;;17.13;7.65;;;;;;;23.20;27.88;99565.13;5030999;28;20349;-56
2022/06/09 03:12:47;;;;;;;14.85;7.35;;;;;;;23.60;27.34;99545.88;5031027;28;20137;-58
2022/06/09 03:15:15;;;;;;;15.77;7.95;;;;;;;24.13;26.30;99559.53;5030296;28;20444;-57
2022/06/09 03:17:41;;;;;;;24.95;9.20;;;;;;;24.48;26.00;99548.16;5030349;28;20029;-58
2022/06/09 03:20:09;;;;;;;15.27;8.55;;;;;;;24.91;25.43;99560.22;5031054;28;20115;-56
2022/06/09 03:22:35;;;;;;;16.52;8.00;;;;;;;25.25;24.53;99557.97;5030706;28;20048;-57
2022/06/09 03:25:01;;;;;;;16.70;8.75;;;;;;;25.62;24.24;99554.41;5030744;28;20025;-59
2022/06/09 03:27:28;;;;;;;17.75;8.07;;;;;;;26.01;23.81;99548.63;5028911;28;20420;-54
2022/06/09 03:29:53;;;;;;;20.48;8.18;;;;;;;26.45;23.56;99554.75;5030401;28;20121;-56
2022/06/09 03:32:19;;;;;;;16.40;8.15;;;;;;;26.88;22.72;99557.47;5030403;28;20037;-56
2022/06/09 03:34:44;;;;;;;17.85;9.00;;;;;;;27.41;22.51;99552.88;5030187;28;20029;-57
2022/06/09 03:37:10;;;;;;;21.63;9.20;;;;;;;28.07;21.63;99560.81;5030636;28;20029;-63
2022/06/09 03:39:37;;;;;;;16.20;8.23;;;;;;;28.69;20.62;99555.56;5030782;28;20029;-58
2022/06/09 03:42:03;;;;;;;22.08;8.65;;;;;;;29.16;19.91;99542.50;5030727;28;20035;-57
2022/06/09 03:44:28;;;;;;;19.10;8.52;;;;;;;29.52;19.65;99554.06;5031055;28;20131;-57
2022/06/09 03:46:54;;;;;;;20.30;8.48;;;;;;;29.74;19.71;99551.28;5030187;28;20497;-57
2022/06/09 03:49:20;;;;;;;20.92;9.30;;;;;;;30.15;18.73;99559.22;5030370;28;20029;-56
2022/06/09 03:51:45;;;;;;;19.27;8.10;;;;;;;30.66;18.51;99552.50;5030248;28;20057;-57
2022/06/09 03:54:11;;;;;;;21.60;8.88;;;;;;;31.27;17.81;99551.25;5030154;28;20029;-64
2022/06/09 03:56:36;;;;;;;17.20;8.15;;;;;;;31.49;17.39;99558.53;5030437;28;20034;-53
2022/06/09 03:59:02;;;;;;;22.10;7.97;;;;;;;31.91;16.81;99560.38;5030603;28;20044;-57
2022/06/09 04:01:27;;;;;;;18.30;8.52;;;;;;;32.30;16.26;99566.53;5030550;28;20056;-58
2022/06/09 04:03:53;;;;;;;17.50;8.10;;;;;;;32.59;16.06;99550.25;5029927;28;20037;-57
2022/06/09 04:06:22;;;;;;;18.13;8.63;;;;;;;33.16;15.71;99564.06;5030276;28;20128;-59
2022/06/09 04:08:48;;;;;;;22.35;8.20;;;;;;;33.62;14.82;99538.09;5030702;28;20028;-60
2022/06/09 04:11:16;;;;;;;15.95;7.13;;;;;;;34.43;14.16;99562.03;5030446;28;20124;-59
2022/06/09 04:13:42;;;;;;;22.38;7.85;;;;;;;34.81;13.74;99563.44;5030125;28;20435;-60
2022/06/09 04:16:23;;;;;;;15.30;6.50;;;;;;;35.63;13.52;99558.97;5030384;28;20034;-58
2022/06/09 04:18:48;;;;;;;14.93;6.78;;;;;;;35.94;12.85;99555.75;5028790;28;20132;-57
2022/06/09 04:21:14;;;;;;;14.68;6.90;;;;;;;36.48;12.11;99553.53;5030687;28;20121;-58
2022/06/09 04:23:40;;;;;;;13.57;7.18;;;;;;;37.11;12.02;99547.72;5029903;28;20044;-61
2022/06/09 04:26:06;;;;;;;18.83;7.68;;;;;;;37.75;11.29;99544.19;5028769;28;20143;-60
2022/06/09 04:28:31;;;;;;;15.75;7.35;;;;;;;38.43;11.16;99553.81;5030631;28;20040;-63
2022/06/09 04:30:56;;;;;;;15.13;6.32;;;;;;;38.51;10.41;99529.88;5029997;28;20109;-60
2022/06/09 04:33:22;;;;;;;12.98;6.22;;;;;;;39.16;10.27;99536.78;5029644;28;20470;-61
2022/06/09 04:35:47;;;;;;;11.27;5.90;;;;;;;39.85;9.47;99539.31;5030089;28;20091;-60
2022/06/09 04:38:14;;;;;;;14.35;7.43;;;;;;;40.79;9.30;99545.53;5029469;28;20040;-64
2022/06/09 04:40:41;;;;;;;12.77;7.13;;;;;;;41.39;8.99;99557.69;5031008;28;20457;-61
2022/06/09 04:43:09;;;;;;;15.25;7.50;;;;;;;42.06;8.59;99539.41;5030183;28;20493;-59
2022/06/09 04:45:35;;;;;;;15.52;7.68;;;;;;;42.51;7.99;99532.25;5029511;28;20049;-60
2022/06/09 04:48:01;;;;;;;15.07;7.13;;;;;;;42.83;8.03;99560.69;5030370;28;20033;-61
2022/06/09 04:50:27;;;;;;;16.42;7.50;;;;;;;43.36;7.69;99554.44;5030399;28;20029;-62
2022/06/09 04:52:53;;;;;;;12.73;7.55;;;;;;;43.99;7.17;99553.19;5029860;28;20036;-63
2022/06/09 04:55:18;;;;;;;15.00;7.10;;;;;;;44.32;6.70;99554.94;5044633;28;20048;-61
2022/06/09 04:57:44;;;;;;;13.20;7.07;;;;;;;44.68;6.78;99561.63;5030642;28;20061;-62
2022/06/09 05:00:13;;;;;;;13.77;7.25;;;;;;;44.86;6.21;99566.91;5030133;28;20033;-62
2022/06/09 05:02:39;;;;;;;16.67;6.88;;;;;;;45.13;5.96;99550.28;5028431;28;20035;-63
2022/06/09 05:05:05;;;;;;;11.10;5.80;;;;;;;45.76;5.79;99573.19;5030026;28;20516;-63
2022/06/09 05:07:31;;;;;;;17.15;6.50;;;;;;;46.17;6.23;99553.03;5029762;28;20033;-60
2022/06/09 05:09:57;;;;;;;14.90;5.65;;;;;;;46.46;5.59;99553.59;5029952;28;20036;-64
2022/06/09 05:12:22;;;;;;;13.82;5.20;;;;;;;46.87;5.19;99556.81;5030047;28;20033;-61
2022/06/09 05:14:49;;;;;;;11.27;5.68;;;;;;;47.16;5.28;99568.66;5033285;28;20041;-62
2022/06/09 05:17:14;;;;;;;10.18;5.72;;;;;;;47.28;4.99;99559.16;5034050;28;20044;-62
2022/06/09 05:19:40;;;;;;;13.65;5.78;;;;;;;47.49;4.95;99558.63;5033369;28;20045;-63
2022/06/09 05:22:06;;;;;;;12.75;6.28;;;;;;;47.83;4.92;99555.91;5033198;28;20037;-61
2022/06/09 05:24:31;;;;;;;10.70;5.95;;;;;;;48.26;4.91;99547.13;5033727;28;20036;-61
2022/06/09 05:26:57;;;;;;;13.45;6.55;;;;;;;48.70;4.74;99542.72;5032763;28;20052;-61
2022/06/09 05:29:22;;;;;;;9.75;5.93;;;;;;;49.01;4.03;99553.97;5032965;28;20037;-61
2022/06/09 05:31:48;;;;;;;11.38;5.50;;;;;;;49.23;4.12;99554.16;5033041;28;20528;-60
2022/06/09 05:34:13;;;;;;;9.65;5.70;;;;;;;49.38;3.73;99557.91;5033389;28;20032;-62
2022/06/09 05:36:39;;;;;;;12.43;5.85;;;;;;;49.70;3.76;99551.66;5033372;28;20400;-61
2022/06/09 05:44:52;;;;;;;;;;;;;;;53.01;3.13;99563.44;5032008;28;20029;-61
2022/06/09 05:47:20;;;;;;;13.05;5.18;;;;;;;51.46;2.63;99549.56;5032288;28;19919;-65
2022/06/09 05:49:50;;;;;;;9.52;4.90;;;;;;;51.57;2.62;99528.72;5033513;28;20033;-61
2022/06/09 05:52:25;;;;;;;9.07;4.78;;;;;;;52.28;2.58;99555.34;5031718;28;20385;-62
2022/06/09 05:54:51;;;;;;;9.23;5.22;;;;;;;52.22;2.26;99545.63;5032789;28;20037;-60
2022/06/09 05:57:17;;;;;;;9.20;5.00;;;;;;;52.45;2.10;99547.94;5033343;28;20117;-62
2022/06/09 05:59:43;;;;;;;10.77;5.00;;;;;;;52.53;2.26;99522.97;5030961;28;20476;-61
2022/06/09 06:02:11;;;;;;;9.00;5.32;;;;;;;53.19;1.93;99544.09;5032555;28;20065;-61
2022/06/09 06:04:37;;;;;;;7.85;5.53;;;;;;;53.75;1.36;99534.53;5032970;28;20108;-60
2022/06/09 06:07:03;;;;;;;8.52;5.10;;;;;;;54.06;1.55;99540.28;5032196;28;20370;-62
2022/06/09 06:09:29;;;;;;;8.10;5.00;;;;;;;54.44;1.14;99539.34;5032267;28;20052;-61
2022/06/09 06:11:54;;;;;;;10.10;5.60;;;;;;;54.52;1.37;99535.13;5031445;28;20125;-61
2022/06/09 06:14:22;;;;;;;8.60;4.60;;;;;;;54.58;1.15;99544.03;5033101;28;20104;-62
2022/06/09 06:16:48;;;;;;;8.23;5.05;;;;;;;54.49;1.14;99524.53;5032022;28;20041;-62
2022/06/09 06:19:17;;;;;;;6.75;5.07;;;;;;;54.87;1.44;99520.63;5028098;28;20050;-63
2022/06/09 06:21:42;;;;;;;9.35;5.38;;;;;;;55.13;1.02;99529.63;5012708;28;20052;-61
2022/06/09 06:24:09;;;;;;;4.22;3.47;;;;;;;55.51;0.67;99525.63;5012859;28;20037;-62
2022/06/09 06:26:35;;;;;;;9.45;3.50;;;;;;;55.06;0.79;99532.63;5011929;28;20030;-61
2022/06/09 06:29:03;;;;;;;9.20;4.20;;;;;;;55.15;0.92;99535.72;5012368;28;20132;-61
2022/06/09 06:31:29;;;;;;;6.88;3.88;;;;;;;55.06;0.63;99526.88;5012383;28;20026;-60
2022/06/09 06:33:54;;;;;;;8.23;4.38;;;;;;;55.39;0.38;99524.22;5019248;28;20032;-60
2022/06/09 06:36:20;;;;;;;6.30;4.32;;;;;;;55.83;0.31;99518.41;5032375;28;20090;-65
2022/06/09 06:38:46;;;;;;;10.63;5.20;;;;;;;55.54;0.67;99509.59;5032317;28;20029;-61
2022/06/09 06:41:12;;;;;;;13.75;4.80;;;;;;;55.85;0.60;99535.19;5030476;28;20034;-60
2022/06/09 06:43:39;;;;;;;11.43;4.82;;;;;;;55.78;0.77;99528.38;5031749;28;20156;-58
2022/06/09 06:46:04;;;;;;;10.02;4.95;;;;;;;56.30;0.53;99525.16;5032234;28;20034;-61
2022/06/09 06:48:32;;;;;;;5.97;4.90;;;;;;;56.98;0.37;99533.41;5031840;28;20059;-59
2022/06/09 06:50:58;;;;;;;7.45;5.00;;;;;;;56.77;0.14;99535.56;5031295;28;20029;-62
2022/06/09 06:53:24;;;;;;;7.82;5.10;;;;;;;56.68;0.29;99512.38;5031294;28;20527;-63
2022/06/09 06:55:50;;;;;;;9.27;5.25;;;;;;;56.88;0.53;99520.91;5030612;28;20029;-66
2022/06/09 06:58:16;;;;;;;7.82;4.68;;;;;;;56.84;0.11;99520.97;5030158;28;20492;-63
2022/06/09 07:00:42;;;;;;;7.60;5.30;;;;;;;56.63;0.05;99516.59;5030685;28;20040;-66
2022/06/09 07:03:10;;;;;;;5.45;4.53;;;;;;;56.77;0.20;99524.84;5030961;28;20052;-66
2022/06/09 07:05:37;;;;;;;4.97;4.55;;;;;;;56.76;0.00;99523.22;5031253;28;20033;-64
2022/06/09 07:08:04;;;;;;;6.00;4.07;;;;;;;56.98;0.00;99521.91;5031384;28;20044;-65
2022/06/09 07:10:31;;;;;;;5.15;4.57;;;;;;;57.29;0.08;99524.34;5029060;28;20335;-68
2022/06/09 07:12:58;;;;;;;5.80;4.80;;;;;;;57.43;0.00;99523.94;5031029;28;20045;-68
2022/06/09 07:15:23;;;;;;;6.60;4.25;;;;;;;57.58;0.00;99514.88;5019189;28;20056;-66
2022/06/09 07:17:49;;;;;;;7.13;5.07;;;;;;;57.36;0.00;99512.63;5031205;28;20037;-68
2022/06/09 07:20:15;;;;;;;4.80;4.43;;;;;;;57.01;0.00;99509.47;5030735;28;20298;-69
2022/06/09 07:22:42;;;;;;;6.25;4.22;;;;;;;55.67;0.01;99509.72;5030859;28;20037;-69
2022/06/09 07:25:20;;;;;;;3.70;3.50;;;;;;;55.17;0.00;99493.06;5029986;28;20057;-69
2022/06/09 07:27:47;;;;;;;7.78;3.20;;;;;;;55.78;0.00;99507.44;5030844;28;20125;-69
2022/06/09 07:30:14;;;;;;;6.07;4.05;;;;;;;55.93;0.00;99514.50;5030488;28;20039;-68
2022/06/09 07:32:40;;;;;;;4.45;4.15;;;;;;;56.38;0.08;99509.41;5029098;28;20547;-69
2022/06/09 07:35:08;;;;;;;4.40;3.97;;;;;;;57.24;0.00;99524.88;5030490;28;20030;-69
2022/06/09 07:37:33;;;;;;;4.47;4.07;;;;;;;57.75;0.00;99512.72;5030504;28;20511;-69
2022/06/09 07:39:59;;;;;;;4.30;4.00;;;;;;;58.29;0.00;99516.06;5030455;28;20030;-69
2022/06/09 07:42:26;;;;;;;5.35;4.95;;;;;;;58.10;0.00;99507.16;5030813;28;20052;-66
2022/06/09 07:44:52;;;;;;;6.32;5.82;;;;;;;57.89;0.00;99518.09;5030753;28;20033;-67
2022/06/09 07:47:18;;;;;;;6.43;5.93;;;;;;;57.84;0.00;99512.88;5030282;28;20117;-69
2022/06/09 07:49:44;;;;;;;7.18;6.78;;;;;;;58.11;0.00;99513.72;5030431;28;20061;-69
2022/06/09 07:52:10;;;;;;;6.45;6.03;;;;;;;58.33;0.00;99519.63;5030825;28;20036;-69
2022/06/09 07:54:36;;;;;;;6.82;6.28;;;;;;;58.20;0.00;99511.78;5030273;28;20025;-67
2022/06/09 07:57:01;;;;;;;7.13;6.75;;;;;;;58.40;0.00;99516.50;5030024;28;20458;-67
2022/06/09 07:59:27;;;;;;;7.47;6.88;;;;;;;57.60;0.00;99515.25;5030532;28;20021;-67
2022/06/09 08:01:53;;;;;;;6.10;5.60;;;;;;;56.31;0.00;99507.50;5029879;28;20116;-70
2022/06/09 08:04:18;;;;;;;6.85;6.35;;;;;;;55.57;0.63;99505.84;5030342;28;20116;-68
2022/06/09 08:06:44;;;;;;;4.65;4.20;;;;;;;54.77;0.73;99505.25;5029206;28;20033;-68
2022/06/09 08:09:10;;;;;;;5.37;4.97;;;;;;;54.04;0.89;99505.56;5030726;28;20029;-69
2022/06/09 08:11:37;;;;;;;5.47;4.35;;;;;;;53.60;0.88;99513.81;5030686;28;20726;-68
2022/06/09 08:14:04;;;;;;;3.97;3.55;;;;;;;53.25;1.20;99502.34;5030064;28;20424;-68
2022/06/09 08:16:30;;;;;;;4.57;3.33;;;;;;;52.56;2.02;99505.00;5030221;28;20416;-69
2022/06/09 08:18:57;;;;;;;7.70;3.45;;;;;;;51.68;2.17;99506.72;5030398;28;20061;-65
2022/06/09 08:21:24;;;;;;;3.65;2.67;;;;;;;50.17;2.22;99509.16;5030600;28;20034;-69
2022/06/09 08:23:49;;;;;;;2.20;2.00;;;;;;;47.60;3.53;99495.59;5030056;28;20042;-68
2022/06/09 08:26:15;;;;;;;2.10;1.80;;;;;;;44.94;4.97;99506.63;5029592;28;20431;-69
2022/06/09 08:28:41;;;;;;;3.25;1.67;;;;;;;42.46;6.40;99497.53;5030228;28;20353;-70
2022/06/09 08:31:06;;;;;;;6.45;1.70;;;;;;;40.25;7.95;99504.66;5030351;28;20026;-69
2022/06/09 08:33:31;;;;;;;3.70;1.88;;;;;;;38.29;9.00;99501.59;5029972;28;20032;-68
2022/06/09 08:35:57;;;;;;;3.47;2.17;;;;;;;36.74;10.37;99499.28;5029646;28;20080;-65
2022/06/09 08:38:23;;;;;;;5.82;2.47;;;;;;;35.55;11.10;99504.78;5029237;28;20033;-69
2022/06/09 08:41:19;;;;;;;5.78;2.00;;;;;;;35.15;10.78;99506.91;5030630;28;20026;-69
2022/06/09 08:43:52;;;;;;;3.75;2.10;;;;;;;34.03;12.34;99498.19;5029867;28;20048;-68
2022/06/09 08:46:30;;;;;;;4.10;1.63;;;;;;;33.55;13.05;99487.63;5030314;28;20517;-68
2022/06/09 08:49:00;;;;;;;3.60;2.08;;;;;;;32.93;13.90;99507.25;5034316;28;20037;-68
2022/06/09 08:51:47;;;;;;;2.80;2.20;;;;;;;32.45;13.59;99502.88;5034054;28;20029;-69
2022/06/09 08:54:20;;;;;;;3.85;2.22;;;;;;;31.78;14.50;99517.47;5033323;28;20037;-69
2022/06/09 08:56:49;;;;;;;6.38;2.20;;;;;;;31.19;15.54;99504.72;5033361;28;20025;-69
2022/06/09 08:59:20;;;;;;;4.35;2.38;;;;;;;30.88;16.47;99507.34;5033311;28;20044;-69
2022/06/09 09:01:57;;;;;;;3.75;2.33;;;;;;;30.71;16.78;99489.00;5033515;28;20040;-69
2022/06/09 09:04:37;;;;;;;4.47;2.47;;;;;;;30.85;16.03;99494.03;5033393;28;20373;-70
2022/06/09 09:07:30;;;;;;;3.65;2.60;;;;;;;30.90;16.45;99499.59;5031792;28;20045;-69
2022/06/09 09:10:12;;;;;;;3.97;2.53;;;;;;;30.83;16.92;99499.00;5033509;28;20099;-69
2022/06/09 09:12:44;;;;;;;5.53;2.30;;;;;;;30.89;16.95;99495.19;5033019;28;20503;-67
2022/06/09 09:15:24;;;;;;;5.93;2.22;;;;;;;30.90;16.83;99505.94;5033535;28;20026;-70
2022/06/09 09:18:08;;;;;;;5.35;2.15;;;;;;;30.87;17.38;99489.09;5033017;28;20069;-68
2022/06/09 09:20:55;;;;;;;3.97;2.05;;;;;;;31.05;17.66;99496.91;5032655;28;20142;-68
2022/06/09 09:23:30;;;;;;;7.15;2.35;;;;;;;30.75;17.10;99495.63;5033123;28;20037;-68
2022/06/09 09:26:24;;;;;;;5.20;2.42;;;;;;;30.64;17.75;99489.22;5033019;28;20038;-68
2022/06/09 09:28:54;;;;;;;4.05;2.40;;;;;;;30.51;17.69;99489.66;5032901;28;20606;-68
2022/06/09 09:31:45;;;;;;;5.80;2.25;;;;;;;30.56;17.17;99486.06;5032778;28;20632;-69
2022/06/09 09:34:16;;;;;;;4.72;2.40;;;;;;;30.41;17.65;99476.59;5032290;28;20509;-69
2022/06/09 09:36:46;;;;;;;3.67;2.20;;;;;;;30.38;17.88;99476.28;5033060;28;20377;-68
2022/06/09 09:39:17;;;;;;;5.45;2.30;;;;;;;30.46;17.89;99487.69;5033277;28;20079;-68
2022/06/09 09:41:43;;;;;;;3.72;2.20;;;;;;;30.20;18.27;99465.38;5032233;28;20048;-70
2022/06/09 09:44:21;;;;;;;7.15;2.33;;;;;;;30.29;17.65;99481.47;5032790;28;20037;-68
2022/06/09 09:46:54;;;;;;;3.70;2.33;;;;;;;29.89;18.53;99467.81;5032918;28;20474;-69
2022/06/09 09:49:30;;;;;;;4.32;2.40;;;;;;;29.99;18.43;99469.84;5032600;28;20052;-66
2022/06/09 09:51:57;;;;;;;2.67;2.00;;;;;;;29.98;18.62;99467.38;5032065;28;20064;-69
2022/06/09 09:54:39;;;;;;;3.80;2.60;;;;;;;30.20;17.82;99470.06;5032790;28;20084;-67
2022/06/09 09:57:07;;;;;;;6.70;2.38;;;;;;;30.03;18.18;99457.25;5031540;28;20475;-68
2022/06/09 09:59:44;;;;;;;3.28;2.50;;;;;;;30.07;18.09;99454.78;5031604;28;20037;-66
2022/06/09 10:08:41;;;;;;;4.53;2.50;;;;;;;29.88;18.31;99462.59;5030867;28;20415;-69
2022/06/09 10:14:33;;;;;;;4.35;2.63;;;;;;;29.49;18.71;99453.34;5030354;28;20071;-69
2022/06/09 10:17:01;;;;;;;3.65;2.25;;;;;;;29.26;18.80;99448.09;5028320;28;20044;-69
2022/06/09 10:19:30;;;;;;;4.72;2.65;;;;;;;29.29;19.25;99445.66;5031515;28;20128;-69
2022/06/09 10:22:16;;;;;;;3.55;2.30;;;;;;;29.47;19.30;99449.19;5031545;28;20041;-69
2022/06/09 10:24:56;;;;;;;5.65;2.35;;;;;;;29.62;18.79;99451.28;5032163;28;20091;-68
2022/06/09 10:27:26;;;;;;;5.55;2.50;;;;;;;29.51;18.61;99451.16;5032244;28;20068;-69
2022/06/09 10:29:58;;;;;;;4.75;2.33;;;;;;;29.70;18.88;99453.56;5030311;28;20038;-69
2022/06/09 10:32:36;;;;;;;2.38;2.17;;;;;;;29.82;19.09;99447.91;5031003;28;20104;-67
2022/06/09 10:35:04;;;;;;;5.10;2.70;;;;;;;29.82;18.68;99450.66;5031281;28;20087;-70
2022/06/09 10:37:49;;;;;;;3.85;2.45;;;;;;;29.92;18.38;99444.41;5031076;28;20420;-67
2022/06/09 10:40:14;;;;;;;4.63;2.35;;;;;;;29.83;18.76;99445.97;5031359;28;20432;-68
2022/06/09 10:42:49;;;;;;;6.57;2.35;;;;;;;29.94;18.90;99459.63;5031134;28;20033;-70
2022/06/09 10:45:51;;;;;;;3.00;2.55;;;;;;;30.01;18.29;99448.38;5031601;28;20119;-68
2022/06/09 10:57:24;;;;;;;3.95;2.60;;;;;;;29.45;19.06;99408.09;5029809;28;20440;-66
2022/06/09 10:59:53;;;;;;;8.27;2.60;;;;;;;29.64;19.94;99422.34;5024666;28;20068;-69
2022/06/09 11:02:21;;;;;;;2.58;2.30;;;;;;;29.69;19.15;99431.78;5030525;28;20041;-70
2022/06/09 11:04:50;;;;;;;4.50;2.30;;;;;;;29.65;19.32;99428.69;5026954;28;20021;-65
2022/06/09 11:07:27;;;;;;;3.78;2.20;;;;;;;29.72;19.61;99434.00;5027255;28;20065;-72
2022/06/09 11:10:10;;;;;;;3.78;2.58;;;;;;;29.83;19.50;99430.25;5044992;28;20107;-67
2022/06/09 11:13:18;;;;;;;2.80;2.60;;;;;;;29.77;18.80;99425.78;5028994;28;20033;-68
2022/06/09 11:15:53;;;;;;;3.47;2.40;;;;;;;29.58;19.51;99419.81;5025092;28;20091;-70
2022/06/09 11:18:49;;;;;;;6.28;2.30;;;;;;;29.61;18.95;99411.81;5030426;28;20359;-68
2022/06/09 11:22:01;;;;;;;3.97;2.67;;;;;;;29.65;19.19;99415.72;5030110;28;20481;-69
2022/06/09 11:24:33;;;;;;;3.03;2.63;;;;;;;29.40;20.64;99408.00;5030124;28;20057;-72
2022/06/09 11:27:06;;;;;;;4.63;2.75;;;;;;;29.37;20.23;99422.31;5030025;28;20120;-71
2022/06/09 11:30:09;;;;;;;2.97;2.67;;;;;;;29.37;20.13;99412.09;5030081;28;20500;-69
2022/06/09 11:32:45;;;;;;;2.92;2.58;;;;;;;29.22;20.67;99410.00;5030582;28;20037;-70
2022/06/09 11:35:16;;;;;;;3.63;2.45;;;;;;;29.01;21.40;99405.34;5011935;28;20038;-68
2022/06/09 11:38:05;;;;;;;3.35;2.55;;;;;;;29.12;20.68;99420.94;5029138;28;20087;-68
2022/06/09 11:40:54;;;;;;;2.90;2.33;;;;;;;29.03;20.85;99408.66;5029469;28;20032;-69
2022/06/09 11:43:52;;;;;;;2.70;2.50;;;;;;;29.01;20.65;99408.09;5030678;28;20378;-68
2022/06/09 11:46:20;;;;;;;5.30;2.20;;;;;;;28.92;21.28;99410.47;5028527;28;20037;-67
2022/06/09 11:48:48;;;;;;;6.15;2.83;;;;;;;29.00;21.04;99404.53;5029693;28;20037;-71
2022/06/09 11:51:19;;;;;;;4.10;2.65;;;;;;;29.12;21.71;99409.06;5030518;28;20100;-71
2022/06/09 11:53:49;;;;;;;5.70;2.95;;;;;;;29.16;20.78;99405.53;5030251;28;20112;-68
2022/06/09 11:56:43;;;;;;;4.43;2.90;;;;;;;29.31;20.70;99407.63;5028842;28;20382;-63
2022/06/09 11:59:11;;;;;;;3.67;2.60;;;;;;;29.12;21.10;99407.16;5029119;28;20104;-65
2022/06/09 12:01:37;;;;;;;5.03;2.75;;;;;;;29.06;21.37;99397.97;5021742;28;20547;-60
2022/06/09 12:04:12;;;;;;;4.03;2.83;;;;;;;29.10;21.50;99387.28;5028218;28;20033;-66
2022/06/09 12:07:01;;;;;;;3.95;2.75;;;;;;;29.33;21.48;99399.13;5026215;28;20661;-64
2022/06/09 12:09:52;;;;;;;4.88;2.78;;;;;;;29.40;21.15;99404.41;5012237;28;20071;-65
2022/06/09 12:12:36;;;;;;;7.40;2.88;;;;;;;29.35;20.83;99403.25;5027866;28;20495;-64